sensor_id;sensor_type;location;lat;lon;timestamp;P1;durP1;ratioP1;P2;durP2;ratioP2
18172;SDS011;9211;48.818;9.312;2022-11-18T00:00:08;2.40;;;1.10;;
18172;SDS011;9211;48.818;9.312;2022-11-18T00:02:37;2.03;;;1.20;;
18172;SDS011;9211;48.818;9.312;2022-11-18T00:05:04;2.42;;;1.30;;
18172;SDS011;9211;48.818;9.312;2022-11-18T00:07:32;4.47;;;1.27;;
18172;SDS011;9211;48.818;9.312;2022-11-18T00:09:58;2.80;;;1.30;;
18172;SDS011;9211;48.818;9.312;2022-11-18T00:12:26;2.50;;;1.08;;
18172;SDS011;9211;48.818;9.312;2022-11-18T00:15:10;1.98;;;1.08;;
18172;SDS011;9211;48.818;9.312;2022-11-18T00:17:38;1.77;;;0.90;;
18172;SDS011;9211;48.818;9.312;2022-11-18T00:20:06;2.72;;;0.90;;
18172;SDS011;9211;48.818;9.312;2022-11-18T00:22:33;1.55;;;0.85;;
18172;SDS011;9211;48.818;9.312;2022-11-18T00:25:00;1.17;;;0.75;;
18172;SDS011;9211;48.818;9.312;2022-11-18T00:27:28;2.03;;;1.05;;
18172;SDS011;9211;48.818;9.312;2022-11-18T00:29:55;2.05;;;0.77;;
18172;SDS011;9211;48.818;9.312;2022-11-18T00:32:23;1.58;;;0.80;;
18172;SDS011;9211;48.818;9.312;2022-11-18T00:34:51;1.73;;;0.80;;
18172;SDS011;9211;48.818;9.312;2022-11-18T00:37:18;2.05;;;0.90;;
18172;SDS011;9211;48.818;9.312;2022-11-18T00:39:45;1.50;;;0.70;;
18172;SDS011;9211;48.818;9.312;2022-11-18T00:42:12;1.33;;;0.70;;
18172;SDS011;9211;48.818;9.312;2022-11-18T00:44:56;1.40;;;0.60;;
18172;SDS011;9211;48.818;9.312;2022-11-18T00:47:23;1.30;;;0.60;;
18172;SDS011;9211;48.818;9.312;2022-11-18T00:49:52;1.55;;;0.70;;
18172;SDS011;9211;48.818;9.312;2022-11-18T00:52:19;1.40;;;0.80;;
18172;SDS011;9211;48.818;9.312;2022-11-18T00:54:48;1.95;;;0.60;;
18172;SDS011;9211;48.818;9.312;2022-11-18T00:57:15;0.85;;;0.45;;
18172;SDS011;9211;48.818;9.312;2022-11-18T00:59:42;1.25;;;0.50;;
18172;SDS011;9211;48.818;9.312;2022-11-18T01:02:09;0.85;;;0.50;;
18172;SDS011;9211;48.818;9.312;2022-11-18T01:04:36;1.50;;;0.40;;
18172;SDS011;9211;48.818;9.312;2022-11-18T01:07:04;1.00;;;0.50;;
18172;SDS011;9211;48.818;9.312;2022-11-18T01:09:31;1.40;;;0.50;;
18172;SDS011;9211;48.818;9.312;2022-11-18T01:11:58;1.67;;;0.60;;
18172;SDS011;9211;48.818;9.312;2022-11-18T01:14:43;0.82;;;0.50;;
18172;SDS011;9211;48.818;9.312;2022-11-18T01:17:10;1.60;;;0.57;;
18172;SDS011;9211;48.818;9.312;2022-11-18T01:19:38;2.30;;;0.70;;
18172;SDS011;9211;48.818;9.312;2022-11-18T01:22:06;0.85;;;0.50;;
18172;SDS011;9211;48.818;9.312;2022-11-18T01:24:33;1.63;;;0.50;;
18172;SDS011;9211;48.818;9.312;2022-11-18T01:27:00;0.95;;;0.52;;
18172;SDS011;9211;48.818;9.312;2022-11-18T01:29:27;1.30;;;0.60;;
18172;SDS011;9211;48.818;9.312;2022-11-18T01:31:54;1.02;;;0.40;;
18172;SDS011;9211;48.818;9.312;2022-11-18T01:34:23;1.15;;;0.40;;
18172;SDS011;9211;48.818;9.312;2022-11-18T01:36:52;1.30;;;0.45;;
18172;SDS011;9211;48.818;9.312;2022-11-18T01:39:22;1.55;;;0.50;;
18172;SDS011;9211;48.818;9.312;2022-11-18T01:41:49;1.33;;;0.50;;
18172;SDS011;9211;48.818;9.312;2022-11-18T01:47:22;0.90;;;0.30;;
18172;SDS011;9211;48.818;9.312;2022-11-18T01:49:50;0.95;;;0.40;;
18172;SDS011;9211;48.818;9.312;2022-11-18T01:52:18;1.75;;;0.45;;
18172;SDS011;9211;48.818;9.312;2022-11-18T01:54:48;1.00;;;0.50;;
18172;SDS011;9211;48.818;9.312;2022-11-18T01:57:20;2.42;;;0.40;;
18172;SDS011;9211;48.818;9.312;2022-11-18T01:59:52;1.30;;;0.50;;
18172;SDS011;9211;48.818;9.312;2022-11-18T02:02:22;1.30;;;0.50;;
18172;SDS011;9211;48.818;9.312;2022-11-18T02:04:52;0.85;;;0.40;;
18172;SDS011;9211;48.818;9.312;2022-11-18T02:07:21;1.02;;;0.40;;
18172;SDS011;9211;48.818;9.312;2022-11-18T02:09:51;1.10;;;0.30;;
18172;SDS011;9211;48.818;9.312;2022-11-18T02:12:21;1.60;;;0.40;;
18172;SDS011;9211;48.818;9.312;2022-11-18T02:14:48;1.80;;;0.43;;
18172;SDS011;9211;48.818;9.312;2022-11-18T02:17:19;1.83;;;0.47;;
18172;SDS011;9211;48.818;9.312;2022-11-18T02:26:09;2.15;;;0.50;;
18172;SDS011;9211;48.818;9.312;2022-11-18T02:29:07;1.58;;;0.43;;
18172;SDS011;9211;48.818;9.312;2022-11-18T02:31:38;1.43;;;0.40;;
18172;SDS011;9211;48.818;9.312;2022-11-18T02:34:14;0.90;;;0.30;;
18172;SDS011;9211;48.818;9.312;2022-11-18T02:36:48;1.70;;;0.40;;
18172;SDS011;9211;48.818;9.312;2022-11-18T02:39:22;0.80;;;0.40;;
18172;SDS011;9211;48.818;9.312;2022-11-18T02:41:55;2.20;;;0.50;;
18172;SDS011;9211;48.818;9.312;2022-11-18T02:44:26;1.73;;;0.60;;
18172;SDS011;9211;48.818;9.312;2022-11-18T02:46:57;2.38;;;0.50;;
18172;SDS011;9211;48.818;9.312;2022-11-18T02:49:28;1.90;;;0.50;;
18172;SDS011;9211;48.818;9.312;2022-11-18T02:52:00;1.75;;;0.63;;
18172;SDS011;9211;48.818;9.312;2022-11-18T02:54:29;1.40;;;0.60;;
18172;SDS011;9211;48.818;9.312;2022-11-18T02:56:58;2.50;;;0.60;;
18172;SDS011;9211;48.818;9.312;2022-11-18T02:59:28;3.03;;;0.98;;
18172;SDS011;9211;48.818;9.312;2022-11-18T03:01:55;2.45;;;0.85;;
18172;SDS011;9211;48.818;9.312;2022-11-18T03:04:22;2.53;;;0.80;;
18172;SDS011;9211;48.818;9.312;2022-11-18T03:06:52;1.80;;;0.70;;
18172;SDS011;9211;48.818;9.312;2022-11-18T03:09:26;2.57;;;0.77;;
18172;SDS011;9211;48.818;9.312;2022-11-18T03:12:00;2.63;;;0.70;;
18172;SDS011;9211;48.818;9.312;2022-11-18T03:14:39;1.27;;;0.60;;
18172;SDS011;9211;48.818;9.312;2022-11-18T03:17:13;1.52;;;0.63;;
18172;SDS011;9211;48.818;9.312;2022-11-18T03:19:50;1.95;;;0.80;;
18172;SDS011;9211;48.818;9.312;2022-11-18T03:22:27;3.42;;;0.63;;
18172;SDS011;9211;48.818;9.312;2022-11-18T03:24:59;3.65;;;0.60;;
18172;SDS011;9211;48.818;9.312;2022-11-18T03:27:30;2.28;;;0.60;;
18172;SDS011;9211;48.818;9.312;2022-11-18T03:30:03;3.05;;;0.60;;
18172;SDS011;9211;48.818;9.312;2022-11-18T03:32:34;2.75;;;0.65;;
18172;SDS011;9211;48.818;9.312;2022-11-18T03:35:06;2.58;;;0.70;;
18172;SDS011;9211;48.818;9.312;2022-11-18T03:37:36;1.88;;;0.60;;
18172;SDS011;9211;48.818;9.312;2022-11-18T03:40:07;2.83;;;0.50;;
18172;SDS011;9211;48.818;9.312;2022-11-18T03:42:40;1.83;;;0.50;;
18172;SDS011;9211;48.818;9.312;2022-11-18T03:45:13;2.90;;;0.50;;
18172;SDS011;9211;48.818;9.312;2022-11-18T03:47:46;0.80;;;0.40;;
18172;SDS011;9211;48.818;9.312;2022-11-18T03:50:19;1.40;;;0.50;;
18172;SDS011;9211;48.818;9.312;2022-11-18T03:52:48;1.95;;;0.50;;
18172;SDS011;9211;48.818;9.312;2022-11-18T03:55:19;1.00;;;0.50;;
18172;SDS011;9211;48.818;9.312;2022-11-18T03:57:49;1.15;;;0.50;;
18172;SDS011;9211;48.818;9.312;2022-11-18T04:00:21;1.65;;;0.50;;
18172;SDS011;9211;48.818;9.312;2022-11-18T04:02:50;1.73;;;0.40;;
18172;SDS011;9211;48.818;9.312;2022-11-18T04:05:17;2.20;;;0.50;;
18172;SDS011;9211;48.818;9.312;2022-11-18T04:07:48;1.77;;;0.57;;
18172;SDS011;9211;48.818;9.312;2022-11-18T04:10:21;3.10;;;0.60;;
18172;SDS011;9211;48.818;9.312;2022-11-18T04:12:53;2.47;;;0.60;;
18172;SDS011;9211;48.818;9.312;2022-11-18T04:15:26;1.67;;;0.45;;
18172;SDS011;9211;48.818;9.312;2022-11-18T04:17:55;1.23;;;0.52;;
18172;SDS011;9211;48.818;9.312;2022-11-18T04:20:22;1.30;;;0.50;;
18172;SDS011;9211;48.818;9.312;2022-11-18T04:22:50;0.80;;;0.50;;
18172;SDS011;9211;48.818;9.312;2022-11-18T04:25:17;1.67;;;0.50;;
18172;SDS011;9211;48.818;9.312;2022-11-18T04:27:44;1.92;;;0.45;;
18172;SDS011;9211;48.818;9.312;2022-11-18T04:30:11;1.50;;;0.40;;
18172;SDS011;9211;48.818;9.312;2022-11-18T04:32:40;1.60;;;0.40;;
18172;SDS011;9211;48.818;9.312;2022-11-18T04:35:07;1.45;;;0.40;;
18172;SDS011;9211;48.818;9.312;2022-11-18T04:37:34;1.67;;;0.50;;
18172;SDS011;9211;48.818;9.312;2022-11-18T04:40:02;0.80;;;0.30;;
18172;SDS011;9211;48.818;9.312;2022-11-18T04:42:29;2.10;;;0.60;;
18172;SDS011;9211;48.818;9.312;2022-11-18T04:44:56;1.60;;;0.50;;
18172;SDS011;9211;48.818;9.312;2022-11-18T04:47:23;1.33;;;0.60;;
18172;SDS011;9211;48.818;9.312;2022-11-18T04:49:51;1.42;;;0.50;;
18172;SDS011;9211;48.818;9.312;2022-11-18T04:52:18;3.13;;;0.60;;
18172;SDS011;9211;48.818;9.312;2022-11-18T04:54:45;1.13;;;0.50;;
18172;SDS011;9211;48.818;9.312;2022-11-18T04:57:12;1.33;;;0.40;;
18172;SDS011;9211;48.818;9.312;2022-11-18T04:59:39;0.88;;;0.40;;
18172;SDS011;9211;48.818;9.312;2022-11-18T05:02:06;2.30;;;0.43;;
18172;SDS011;9211;48.818;9.312;2022-11-18T05:04:33;2.15;;;0.50;;
18172;SDS011;9211;48.818;9.312;2022-11-18T05:07:02;2.03;;;0.30;;
18172;SDS011;9211;48.818;9.312;2022-11-18T05:09:31;2.65;;;0.50;;
18172;SDS011;9211;48.818;9.312;2022-11-18T05:11:59;1.65;;;0.40;;
18172;SDS011;9211;48.818;9.312;2022-11-18T05:14:44;4.30;;;0.50;;
18172;SDS011;9211;48.818;9.312;2022-11-18T05:17:11;1.42;;;0.50;;
18172;SDS011;9211;48.818;9.312;2022-11-18T05:19:38;1.08;;;0.40;;
18172;SDS011;9211;48.818;9.312;2022-11-18T05:22:06;3.13;;;0.70;;
18172;SDS011;9211;48.818;9.312;2022-11-18T05:24:33;2.90;;;0.63;;
18172;SDS011;9211;48.818;9.312;2022-11-18T05:27:00;1.52;;;0.70;;
18172;SDS011;9211;48.818;9.312;2022-11-18T05:29:27;2.13;;;0.60;;
18172;SDS011;9211;48.818;9.312;2022-11-18T05:31:54;2.35;;;0.50;;
18172;SDS011;9211;48.818;9.312;2022-11-18T05:34:21;2.50;;;0.65;;
18172;SDS011;9211;48.818;9.312;2022-11-18T05:36:48;3.47;;;0.60;;
18172;SDS011;9211;48.818;9.312;2022-11-18T05:39:17;1.50;;;0.60;;
18172;SDS011;9211;48.818;9.312;2022-11-18T05:41:44;2.90;;;0.90;;
18172;SDS011;9211;48.818;9.312;2022-11-18T05:44:28;2.58;;;0.80;;
18172;SDS011;9211;48.818;9.312;2022-11-18T05:46:55;2.53;;;0.75;;
18172;SDS011;9211;48.818;9.312;2022-11-18T05:49:22;2.33;;;0.85;;
18172;SDS011;9211;48.818;9.312;2022-11-18T05:51:49;2.08;;;0.70;;
18172;SDS011;9211;48.818;9.312;2022-11-18T05:54:18;2.72;;;0.70;;
18172;SDS011;9211;48.818;9.312;2022-11-18T05:56:46;2.45;;;0.70;;
18172;SDS011;9211;48.818;9.312;2022-11-18T05:59:13;2.00;;;0.70;;
18172;SDS011;9211;48.818;9.312;2022-11-18T06:01:41;2.50;;;0.70;;
18172;SDS011;9211;48.818;9.312;2022-11-18T06:04:12;2.72;;;0.95;;
18172;SDS011;9211;48.818;9.312;2022-11-18T06:06:42;3.47;;;1.20;;
18172;SDS011;9211;48.818;9.312;2022-11-18T06:09:11;2.88;;;1.10;;
18172;SDS011;9211;48.818;9.312;2022-11-18T06:11:42;3.85;;;1.10;;
18172;SDS011;9211;48.818;9.312;2022-11-18T06:14:13;2.95;;;1.27;;
18172;SDS011;9211;48.818;9.312;2022-11-18T06:16:46;3.03;;;1.27;;
18172;SDS011;9211;48.818;9.312;2022-11-18T06:19:16;4.57;;;1.05;;
18172;SDS011;9211;48.818;9.312;2022-11-18T06:21:43;5.00;;;1.10;;
18172;SDS011;9211;48.818;9.312;2022-11-18T06:24:11;3.42;;;0.90;;
18172;SDS011;9211;48.818;9.312;2022-11-18T06:26:41;2.83;;;0.77;;
18172;SDS011;9211;48.818;9.312;2022-11-18T06:29:11;3.65;;;0.80;;
18172;SDS011;9211;48.818;9.312;2022-11-18T06:31:40;3.60;;;0.60;;
18172;SDS011;9211;48.818;9.312;2022-11-18T06:34:07;2.80;;;0.57;;
18172;SDS011;9211;48.818;9.312;2022-11-18T06:36:34;4.10;;;0.68;;
18172;SDS011;9211;48.818;9.312;2022-11-18T06:39:02;4.57;;;0.80;;
18172;SDS011;9211;48.818;9.312;2022-11-18T06:41:29;3.13;;;0.50;;
18172;SDS011;9211;48.818;9.312;2022-11-18T06:43:58;1.42;;;0.52;;
18172;SDS011;9211;48.818;9.312;2022-11-18T06:46:27;3.55;;;0.73;;
18172;SDS011;9211;48.818;9.312;2022-11-18T06:49:12;1.73;;;0.90;;
18172;SDS011;9211;48.818;9.312;2022-11-18T06:51:39;3.70;;;1.10;;
18172;SDS011;9211;48.818;9.312;2022-11-18T06:54:06;1.95;;;0.70;;
18172;SDS011;9211;48.818;9.312;2022-11-18T06:56:33;3.13;;;1.10;;
18172;SDS011;9211;48.818;9.312;2022-11-18T06:59:02;3.00;;;1.10;;
18172;SDS011;9211;48.818;9.312;2022-11-18T07:01:30;2.92;;;1.13;;
18172;SDS011;9211;48.818;9.312;2022-11-18T07:03:59;3.50;;;0.95;;
18172;SDS011;9211;48.818;9.312;2022-11-18T07:06:28;2.90;;;0.80;;
18172;SDS011;9211;48.818;9.312;2022-11-18T07:08:56;3.87;;;1.60;;
18172;SDS011;9211;48.818;9.312;2022-11-18T07:11:24;3.22;;;1.90;;
18172;SDS011;9211;48.818;9.312;2022-11-18T07:13:52;7.70;;;2.40;;
18172;SDS011;9211;48.818;9.312;2022-11-18T07:16:21;4.60;;;2.22;;
18172;SDS011;9211;48.818;9.312;2022-11-18T07:18:52;3.35;;;1.77;;
18172;SDS011;9211;48.818;9.312;2022-11-18T07:21:21;4.63;;;1.90;;
18172;SDS011;9211;48.818;9.312;2022-11-18T07:23:49;4.55;;;1.80;;
18172;SDS011;9211;48.818;9.312;2022-11-18T07:26:16;3.23;;;1.60;;
18172;SDS011;9211;48.818;9.312;2022-11-18T07:28:43;4.45;;;1.50;;
18172;SDS011;9211;48.818;9.312;2022-11-18T07:31:11;2.00;;;1.00;;
18172;SDS011;9211;48.818;9.312;2022-11-18T07:33:41;5.55;;;0.90;;
18172;SDS011;9211;48.818;9.312;2022-11-18T07:36:10;2.58;;;0.80;;
18172;SDS011;9211;48.818;9.312;2022-11-18T07:38:38;2.83;;;1.00;;
18172;SDS011;9211;48.818;9.312;2022-11-18T07:41:06;2.42;;;0.90;;
18172;SDS011;9211;48.818;9.312;2022-11-18T07:43:35;1.90;;;0.90;;
18172;SDS011;9211;48.818;9.312;2022-11-18T07:46:12;1.90;;;1.00;;
18172;SDS011;9211;48.818;9.312;2022-11-18T07:48:43;2.87;;;0.87;;
18172;SDS011;9211;48.818;9.312;2022-11-18T07:51:11;1.73;;;0.90;;
18172;SDS011;9211;48.818;9.312;2022-11-18T07:53:39;2.22;;;0.82;;
18172;SDS011;9211;48.818;9.312;2022-11-18T07:56:06;4.00;;;1.00;;
18172;SDS011;9211;48.818;9.312;2022-11-18T07:58:33;1.90;;;0.80;;
18172;SDS011;9211;48.818;9.312;2022-11-18T08:01:05;3.72;;;1.00;;
18172;SDS011;9211;48.818;9.312;2022-11-18T08:03:33;2.20;;;1.65;;
18172;SDS011;9211;48.818;9.312;2022-11-18T08:06:02;2.80;;;1.90;;
18172;SDS011;9211;48.818;9.312;2022-11-18T08:08:30;3.38;;;1.70;;
18172;SDS011;9211;48.818;9.312;2022-11-18T08:10:58;2.00;;;1.05;;
18172;SDS011;9211;48.818;9.312;2022-11-18T08:13:26;2.03;;;0.90;;
18172;SDS011;9211;48.818;9.312;2022-11-18T08:15:54;2.25;;;0.90;;
18172;SDS011;9211;48.818;9.312;2022-11-18T08:18:21;1.70;;;0.80;;
18172;SDS011;9211;48.818;9.312;2022-11-18T08:20:48;2.83;;;1.48;;
18172;SDS011;9211;48.818;9.312;2022-11-18T08:23:17;3.35;;;1.38;;
18172;SDS011;9211;48.818;9.312;2022-11-18T08:25:44;2.83;;;1.30;;
18172;SDS011;9211;48.818;9.312;2022-11-18T08:28:12;3.65;;;1.30;;
18172;SDS011;9211;48.818;9.312;2022-11-18T08:30:39;2.00;;;1.10;;
18172;SDS011;9211;48.818;9.312;2022-11-18T08:33:06;1.80;;;1.30;;
18172;SDS011;9211;48.818;9.312;2022-11-18T08:35:34;2.08;;;1.35;;
18172;SDS011;9211;48.818;9.312;2022-11-18T08:38:01;4.90;;;1.17;;
18172;SDS011;9211;48.818;9.312;2022-11-18T08:40:29;1.60;;;1.00;;
18172;SDS011;9211;48.818;9.312;2022-11-18T08:42:59;1.63;;;1.10;;
18172;SDS011;9211;48.818;9.312;2022-11-18T08:45:26;3.60;;;1.00;;
18172;SDS011;9211;48.818;9.312;2022-11-18T08:47:53;2.00;;;0.90;;
18172;SDS011;9211;48.818;9.312;2022-11-18T08:50:20;1.33;;;0.80;;
18172;SDS011;9211;48.818;9.312;2022-11-18T08:52:47;2.78;;;0.73;;
18172;SDS011;9211;48.818;9.312;2022-11-18T08:55:14;1.80;;;0.70;;
18172;SDS011;9211;48.818;9.312;2022-11-18T08:57:43;1.90;;;0.75;;
18172;SDS011;9211;48.818;9.312;2022-11-18T09:00:10;1.33;;;0.80;;
18172;SDS011;9211;48.818;9.312;2022-11-18T09:02:39;3.03;;;1.00;;
18172;SDS011;9211;48.818;9.312;2022-11-18T09:05:06;2.45;;;1.00;;
18172;SDS011;9211;48.818;9.312;2022-11-18T09:07:33;2.22;;;0.80;;
18172;SDS011;9211;48.818;9.312;2022-11-18T09:10:00;0.87;;;0.60;;
18172;SDS011;9211;48.818;9.312;2022-11-18T09:12:27;1.63;;;0.90;;
18172;SDS011;9211;48.818;9.312;2022-11-18T09:14:56;2.80;;;0.95;;
18172;SDS011;9211;48.818;9.312;2022-11-18T09:17:23;2.15;;;0.80;;
18172;SDS011;9211;48.818;9.312;2022-11-18T09:19:50;3.50;;;1.00;;
18172;SDS011;9211;48.818;9.312;2022-11-18T09:22:17;2.40;;;1.07;;
18172;SDS011;9211;48.818;9.312;2022-11-18T09:24:44;1.52;;;0.80;;
18172;SDS011;9211;48.818;9.312;2022-11-18T09:27:11;1.70;;;0.80;;
18172;SDS011;9211;48.818;9.312;2022-11-18T09:29:38;2.05;;;0.90;;
18172;SDS011;9211;48.818;9.312;2022-11-18T09:32:07;1.60;;;0.80;;
18172;SDS011;9211;48.818;9.312;2022-11-18T09:34:33;2.83;;;0.80;;
18172;SDS011;9211;48.818;9.312;2022-11-18T09:37:01;3.53;;;0.80;;
18172;SDS011;9211;48.818;9.312;2022-11-18T09:39:30;1.47;;;0.93;;
18172;SDS011;9211;48.818;9.312;2022-11-18T09:42:01;2.95;;;0.90;;
18172;SDS011;9211;48.818;9.312;2022-11-18T09:44:57;4.45;;;0.80;;
18172;SDS011;9211;48.818;9.312;2022-11-18T09:47:36;1.90;;;0.90;;
18172;SDS011;9211;48.818;9.312;2022-11-18T09:50:04;1.05;;;0.70;;
18172;SDS011;9211;48.818;9.312;2022-11-18T09:52:38;3.77;;;0.70;;
18172;SDS011;9211;48.818;9.312;2022-11-18T09:55:10;1.30;;;0.70;;
18172;SDS011;9211;48.818;9.312;2022-11-18T09:57:39;4.53;;;2.38;;
18172;SDS011;9211;48.818;9.312;2022-11-18T10:00:14;1.67;;;1.00;;
18172;SDS011;9211;48.818;9.312;2022-11-18T10:02:49;1.77;;;0.80;;
18172;SDS011;9211;48.818;9.312;2022-11-18T10:05:23;2.30;;;0.88;;
18172;SDS011;9211;48.818;9.312;2022-11-18T10:07:55;2.42;;;0.90;;
18172;SDS011;9211;48.818;9.312;2022-11-18T10:10:43;2.35;;;1.13;;
18172;SDS011;9211;48.818;9.312;2022-11-18T10:13:20;4.05;;;1.38;;
18172;SDS011;9211;48.818;9.312;2022-11-18T10:15:58;3.17;;;1.50;;
18172;SDS011;9211;48.818;9.312;2022-11-18T10:18:34;2.83;;;1.52;;
18172;SDS011;9211;48.818;9.312;2022-11-18T10:21:07;2.85;;;1.42;;
18172;SDS011;9211;48.818;9.312;2022-11-18T10:23:44;3.58;;;1.65;;
18172;SDS011;9211;48.818;9.312;2022-11-18T10:26:30;3.95;;;1.73;;
18172;SDS011;9211;48.818;9.312;2022-11-18T10:28:58;3.53;;;1.80;;
18172;SDS011;9211;48.818;9.312;2022-11-18T10:31:25;2.58;;;1.60;;
18172;SDS011;9211;48.818;9.312;2022-11-18T10:33:58;3.00;;;1.63;;
18172;SDS011;9211;48.818;9.312;2022-11-18T10:36:26;2.67;;;1.50;;
18172;SDS011;9211;48.818;9.312;2022-11-18T10:39:10;2.75;;;1.30;;
18172;SDS011;9211;48.818;9.312;2022-11-18T10:41:39;3.28;;;1.35;;
18172;SDS011;9211;48.818;9.312;2022-11-18T10:44:24;4.00;;;1.30;;
18172;SDS011;9211;48.818;9.312;2022-11-18T10:46:54;2.57;;;1.30;;
18172;SDS011;9211;48.818;9.312;2022-11-18T10:49:23;3.40;;;1.20;;
18172;SDS011;9211;48.818;9.312;2022-11-18T10:52:03;2.28;;;1.20;;
18172;SDS011;9211;48.818;9.312;2022-11-18T10:54:34;4.03;;;1.30;;
18172;SDS011;9211;48.818;9.312;2022-11-18T10:57:02;2.93;;;1.47;;
18172;SDS011;9211;48.818;9.312;2022-11-18T10:59:32;2.90;;;1.40;;
18172;SDS011;9211;48.818;9.312;2022-11-18T11:02:10;2.53;;;1.30;;
18172;SDS011;9211;48.818;9.312;2022-11-18T11:04:43;3.80;;;1.45;;
18172;SDS011;9211;48.818;9.312;2022-11-18T11:07:16;3.58;;;1.52;;
18172;SDS011;9211;48.818;9.312;2022-11-18T11:10:00;2.33;;;1.30;;
18172;SDS011;9211;48.818;9.312;2022-11-18T11:12:40;3.45;;;1.63;;
18172;SDS011;9211;48.818;9.312;2022-11-18T11:15:12;6.10;;;2.00;;
18172;SDS011;9211;48.818;9.312;2022-11-18T11:17:44;2.95;;;1.77;;
18172;SDS011;9211;48.818;9.312;2022-11-18T11:20:38;4.10;;;1.67;;
18172;SDS011;9211;48.818;9.312;2022-11-18T11:23:08;4.05;;;1.45;;
18172;SDS011;9211;48.818;9.312;2022-11-18T11:25:39;4.30;;;1.75;;
18172;SDS011;9211;48.818;9.312;2022-11-18T11:28:11;4.00;;;1.77;;
18172;SDS011;9211;48.818;9.312;2022-11-18T11:30:49;4.88;;;1.80;;
18172;SDS011;9211;48.818;9.312;2022-11-18T11:33:25;6.20;;;1.90;;
18172;SDS011;9211;48.818;9.312;2022-11-18T11:36:07;4.20;;;1.60;;
18172;SDS011;9211;48.818;9.312;2022-11-18T11:38:45;5.00;;;1.73;;
18172;SDS011;9211;48.818;9.312;2022-11-18T11:41:26;4.30;;;1.60;;
18172;SDS011;9211;48.818;9.312;2022-11-18T11:44:02;4.07;;;1.27;;
18172;SDS011;9211;48.818;9.312;2022-11-18T11:46:57;3.20;;;1.20;;
18172;SDS011;9211;48.818;9.312;2022-11-18T11:49:51;3.67;;;1.30;;
18172;SDS011;9211;48.818;9.312;2022-11-18T11:52:24;3.70;;;1.42;;
18172;SDS011;9211;48.818;9.312;2022-11-18T11:54:59;3.28;;;1.70;;
18172;SDS011;9211;48.818;9.312;2022-11-18T11:57:41;2.25;;;1.25;;
18172;SDS011;9211;48.818;9.312;2022-11-18T12:00:22;2.83;;;1.50;;
18172;SDS011;9211;48.818;9.312;2022-11-18T12:02:52;3.38;;;1.48;;
18172;SDS011;9211;48.818;9.312;2022-11-18T12:05:27;2.80;;;1.40;;
18172;SDS011;9211;48.818;9.312;2022-11-18T12:08:01;3.78;;;1.42;;
18172;SDS011;9211;48.818;9.312;2022-11-18T12:10:34;2.90;;;1.30;;
18172;SDS011;9211;48.818;9.312;2022-11-18T12:13:23;4.35;;;1.50;;
18172;SDS011;9211;48.818;9.312;2022-11-18T12:16:10;3.53;;;1.50;;
18172;SDS011;9211;48.818;9.312;2022-11-18T12:18:45;2.47;;;1.10;;
18172;SDS011;9211;48.818;9.312;2022-11-18T12:24:25;3.05;;;1.30;;
18172;SDS011;9211;48.818;9.312;2022-11-18T12:26:56;2.20;;;0.90;;
18172;SDS011;9211;48.818;9.312;2022-11-18T12:29:25;2.55;;;0.98;;
18172;SDS011;9211;48.818;9.312;2022-11-18T12:31:57;2.63;;;1.20;;
18172;SDS011;9211;48.818;9.312;2022-11-18T12:34:30;3.57;;;1.00;;
18172;SDS011;9211;48.818;9.312;2022-11-18T12:40:06;1.40;;;0.88;;
18172;SDS011;9211;48.818;9.312;2022-11-18T12:42:38;2.20;;;0.85;;
18172;SDS011;9211;48.818;9.312;2022-11-18T12:45:46;2.22;;;0.80;;
18172;SDS011;9211;48.818;9.312;2022-11-18T12:48:32;1.88;;;0.82;;
18172;SDS011;9211;48.818;9.312;2022-11-18T12:54:29;2.43;;;1.10;;
18172;SDS011;9211;48.818;9.312;2022-11-18T12:57:00;2.28;;;1.10;;
18172;SDS011;9211;48.818;9.312;2022-11-18T12:59:30;4.47;;;1.00;;
18172;SDS011;9211;48.818;9.312;2022-11-18T13:05:04;3.10;;;1.10;;
18172;SDS011;9211;48.818;9.312;2022-11-18T13:07:37;2.47;;;1.20;;
18172;SDS011;9211;48.818;9.312;2022-11-18T13:10:26;4.13;;;1.10;;
18172;SDS011;9211;48.818;9.312;2022-11-18T13:12:57;2.03;;;1.00;;
18172;SDS011;9211;48.818;9.312;2022-11-18T13:15:24;4.47;;;1.15;;
18172;SDS011;9211;48.818;9.312;2022-11-18T13:18:13;5.63;;;1.42;;
18172;SDS011;9211;48.818;9.312;2022-11-18T13:20:41;3.87;;;1.10;;
18172;SDS011;9211;48.818;9.312;2022-11-18T13:26:18;7.30;;;1.20;;
18172;SDS011;9211;48.818;9.312;2022-11-18T13:28:57;3.90;;;1.20;;
18172;SDS011;9211;48.818;9.312;2022-11-18T13:31:33;5.30;;;1.40;;
18172;SDS011;9211;48.818;9.312;2022-11-18T13:34:09;3.10;;;1.20;;
18172;SDS011;9211;48.818;9.312;2022-11-18T13:36:42;4.43;;;1.33;;
18172;SDS011;9211;48.818;9.312;2022-11-18T13:39:15;4.70;;;1.40;;
18172;SDS011;9211;48.818;9.312;2022-11-18T13:41:45;5.20;;;1.67;;
18172;SDS011;9211;48.818;9.312;2022-11-18T13:44:16;5.20;;;1.60;;
18172;SDS011;9211;48.818;9.312;2022-11-18T13:46:46;3.10;;;1.50;;
18172;SDS011;9211;48.818;9.312;2022-11-18T13:49:18;4.35;;;1.30;;
18172;SDS011;9211;48.818;9.312;2022-11-18T13:51:48;3.38;;;1.10;;
18172;SDS011;9211;48.818;9.312;2022-11-18T13:54:18;3.50;;;1.17;;
18172;SDS011;9211;48.818;9.312;2022-11-18T13:56:49;4.30;;;1.20;;
18172;SDS011;9211;48.818;9.312;2022-11-18T13:59:19;2.88;;;0.90;;
18172;SDS011;9211;48.818;9.312;2022-11-18T14:01:51;2.95;;;1.20;;
18172;SDS011;9211;48.818;9.312;2022-11-18T14:04:21;3.67;;;1.17;;
18172;SDS011;9211;48.818;9.312;2022-11-18T14:06:50;3.50;;;0.98;;
18172;SDS011;9211;48.818;9.312;2022-11-18T14:09:18;2.97;;;1.15;;
18172;SDS011;9211;48.818;9.312;2022-11-18T14:11:59;2.72;;;1.10;;
18172;SDS011;9211;48.818;9.312;2022-11-18T14:14:29;2.90;;;1.30;;
18172;SDS011;9211;48.818;9.312;2022-11-18T14:17:04;4.30;;;1.27;;
18172;SDS011;9211;48.818;9.312;2022-11-18T14:19:42;3.35;;;1.20;;
18172;SDS011;9211;48.818;9.312;2022-11-18T14:22:11;3.53;;;1.30;;
18172;SDS011;9211;48.818;9.312;2022-11-18T14:24:40;3.78;;;1.27;;
18172;SDS011;9211;48.818;9.312;2022-11-18T14:27:27;2.88;;;1.20;;
18172;SDS011;9211;48.818;9.312;2022-11-18T14:30:02;3.07;;;1.60;;
18172;SDS011;9211;48.818;9.312;2022-11-18T14:33:12;3.08;;;1.20;;
18172;SDS011;9211;48.818;9.312;2022-11-18T14:35:47;4.85;;;2.00;;
18172;SDS011;9211;48.818;9.312;2022-11-18T14:38:17;3.42;;;1.20;;
18172;SDS011;9211;48.818;9.312;2022-11-18T14:40:46;3.80;;;1.30;;
18172;SDS011;9211;48.818;9.312;2022-11-18T14:43:20;4.23;;;1.40;;
18172;SDS011;9211;48.818;9.312;2022-11-18T14:45:48;4.50;;;1.30;;
18172;SDS011;9211;48.818;9.312;2022-11-18T14:48:16;3.22;;;1.40;;
18172;SDS011;9211;48.818;9.312;2022-11-18T14:50:46;2.50;;;1.13;;
18172;SDS011;9211;48.818;9.312;2022-11-18T14:53:13;4.18;;;1.10;;
18172;SDS011;9211;48.818;9.312;2022-11-18T14:55:40;5.53;;;1.48;;
18172;SDS011;9211;48.818;9.312;2022-11-18T14:58:10;2.80;;;1.20;;
18172;SDS011;9211;48.818;9.312;2022-11-18T15:00:39;3.13;;;1.25;;
18172;SDS011;9211;48.818;9.312;2022-11-18T15:03:08;2.95;;;1.70;;
18172;SDS011;9211;48.818;9.312;2022-11-18T15:05:35;6.22;;;1.80;;
18172;SDS011;9211;48.818;9.312;2022-11-18T15:08:03;3.47;;;1.38;;
18172;SDS011;9211;48.818;9.312;2022-11-18T15:10:30;5.65;;;2.00;;
18172;SDS011;9211;48.818;9.312;2022-11-18T15:12:59;6.03;;;1.63;;
18172;SDS011;9211;48.818;9.312;2022-11-18T15:15:26;6.23;;;1.30;;
18172;SDS011;9211;48.818;9.312;2022-11-18T15:17:54;4.45;;;1.50;;
18172;SDS011;9211;48.818;9.312;2022-11-18T15:20:22;4.82;;;1.60;;
18172;SDS011;9211;48.818;9.312;2022-11-18T15:22:49;3.97;;;1.58;;
18172;SDS011;9211;48.818;9.312;2022-11-18T15:25:16;4.10;;;1.50;;
18172;SDS011;9211;48.818;9.312;2022-11-18T15:27:43;3.80;;;1.60;;
18172;SDS011;9211;48.818;9.312;2022-11-18T15:30:10;5.32;;;1.90;;
18172;SDS011;9211;48.818;9.312;2022-11-18T15:32:39;5.07;;;2.00;;
18172;SDS011;9211;48.818;9.312;2022-11-18T15:35:08;5.95;;;2.17;;
18172;SDS011;9211;48.818;9.312;2022-11-18T15:37:38;5.95;;;2.00;;
18172;SDS011;9211;48.818;9.312;2022-11-18T15:40:06;4.78;;;1.70;;
18172;SDS011;9211;48.818;9.312;2022-11-18T15:42:33;7.30;;;2.00;;
18172;SDS011;9211;48.818;9.312;2022-11-18T15:45:00;4.15;;;1.80;;
18172;SDS011;9211;48.818;9.312;2022-11-18T15:47:27;7.63;;;1.90;;